Time;durP1;ratioP1;P1;durP2;ratioP2;P2;SDS_P1;SDS_P2;PMS_P1;PMS_P2;Temp;Humidity;BMP_temperature;BMP_pressure;BME280_temperature;BME280_humidity;BME280_pressure;Samples;Min_cycle;Max_cycle;Signal;HPM_P1;HPM_P2
2022/02/08 00:01:57;;;;;;;21.95;3.53;;;;;;;7.03;94.81;102646.19;5096902;28;20035;-80
2022/02/08 00:04:23;;;;;;;22.30;3.40;;;;;;;7.04;94.93;102650.50;5079314;28;20381;-80
2022/02/08 00:06:48;;;;;;;31.20;4.38;;;;;;;7.05;95.32;102657.47;5085770;28;20099;-80
2022/02/08 00:09:16;;;;;;;20.17;3.20;;;;;;;7.06;95.65;102649.66;5091707;28;20071;-80
2022/02/08 00:11:41;;;;;;;20.33;3.15;;;;;;;7.07;95.46;102653.13;5077428;28;20100;-80
2022/02/08 00:14:07;;;;;;;19.70;3.03;;;;;;;7.08;95.61;102647.06;5090948;28;20036;-80
2022/02/08 00:16:32;;;;;;;19.98;3.83;;;;;;;7.09;95.38;102641.88;5083010;28;20347;-80
2022/02/08 00:18:58;;;;;;;26.48;4.18;;;;;;;7.12;95.51;102648.81;5091803;28;20066;-80
2022/02/08 00:21:24;;;;;;;26.90;3.45;;;;;;;7.16;96.04;102655.78;5088054;28;20027;-80
2022/02/08 00:23:49;;;;;;;17.17;2.78;;;;;;;7.18;96.13;102647.97;5074575;28;20032;-80
2022/02/08 00:26:14;;;;;;;17.42;2.85;;;;;;;7.19;95.87;102652.31;5058197;28;20068;-80
2022/02/08 00:28:40;;;;;;;23.13;3.25;;;;;;;7.24;95.90;102655.78;5092873;28;20246;-80
2022/02/08 00:31:05;;;;;;;27.35;4.03;;;;;;;7.26;96.18;102654.06;5066482;28;20350;-80
2022/02/08 00:33:31;;;;;;;22.08;3.78;;;;;;;7.27;96.28;102653.19;5095179;28;20050;-80
2022/02/08 00:35:56;;;;;;;23.30;4.10;;;;;;;7.29;96.38;102654.06;5091173;28;20028;-80
2022/02/08 00:38:22;;;;;;;18.20;3.45;;;;;;;7.30;96.35;102645.38;5080202;28;20019;-80
2022/02/08 00:40:48;;;;;;;23.40;3.97;;;;;;;7.32;96.15;102653.22;5072134;28;20094;-80
2022/02/08 00:43:24;;;;;;;12.90;2.75;;;;;;;7.36;96.55;102634.97;5044293;28;20046;-80
2022/02/08 00:45:58;;;;;;;22.95;3.92;;;;;;;7.36;96.01;102642.78;5096082;28;20074;-80
2022/02/08 00:48:37;;;;;;;26.95;3.70;;;;;;;7.39;96.45;102641.94;5078409;28;20040;-80
2022/02/08 00:51:03;;;;;;;25.75;3.50;;;;;;;7.41;96.42;102661.06;5060713;28;20047;-80
2022/02/08 00:53:29;;;;;;;20.88;3.42;;;;;;;7.42;96.29;102648.03;5066518;28;20040;-80
2022/02/08 00:55:54;;;;;;;16.77;3.38;;;;;;;7.44;96.50;102640.19;5057707;28;20059;-80
2022/02/08 00:58:20;;;;;;;20.88;3.70;;;;;;;7.44;96.45;102641.06;5059706;28;20047;-80
2022/02/08 01:00:45;;;;;;;19.58;4.80;;;;;;;7.46;96.45;102635.88;5060183;28;20032;-80
2022/02/08 01:03:11;;;;;;;21.67;4.35;;;;;;;7.48;96.78;102642.81;5077986;28;20332;-80
2022/02/08 01:05:42;;;;;;;13.52;3.63;;;;;;;7.50;96.84;102635.00;5058580;28;20091;-80
2022/02/08 01:08:07;;;;;;;19.65;4.55;;;;;;;7.49;96.86;102639.34;5058921;28;20095;-80
2022/02/08 01:10:38;;;;;;;19.40;4.20;;;;;;;7.52;96.80;102633.25;5048545;28;20039;-80
2022/02/08 01:13:06;;;;;;;16.70;4.88;;;;;;;7.53;96.86;102634.09;5050533;28;20032;-80
2022/02/08 01:15:32;;;;;;;25.27;5.60;;;;;;;7.55;96.82;102632.38;5076857;28;20324;-80
2022/02/08 01:17:59;;;;;;;23.25;4.80;;;;;;;7.55;96.98;102628.03;5076561;28;20037;-80
2022/02/08 01:20:34;;;;;;;21.70;5.25;;;;;;;7.57;97.09;102625.44;5058389;28;20103;-80
2022/02/08 01:23:03;;;;;;;25.75;5.43;;;;;;;7.59;97.11;102634.13;5076469;28;20343;-80
2022/02/08 01:25:34;;;;;;;25.23;4.80;;;;;;;7.61;97.25;102635.00;5078529;28;20060;-80
2022/02/08 01:28:10;;;;;;;22.75;5.50;;;;;;;7.63;97.15;102644.53;5077396;28;20264;-81
2022/02/08 01:30:56;;;;;;;30.10;6.03;;;;;;;7.65;97.17;102634.97;5088850;28;20395;-81
2022/02/08 01:38:39;;;;;;;20.90;5.40;;;;;;;7.71;97.30;102628.03;5075388;28;20350;-80
2022/02/08 01:44:03;;;;;;;25.52;5.95;;;;;;;7.75;97.26;102637.59;5074897;28;20059;-80
2022/02/08 01:49:12;;;;;;;27.38;7.35;;;;;;;7.81;97.54;102635.00;5047122;28;20056;-80
2022/02/08 01:51:37;;;;;;;17.00;5.75;;;;;;;7.82;97.36;102639.31;5075869;28;20036;-80
2022/02/08 01:54:03;;;;;;;23.35;5.57;;;;;;;7.87;97.21;102641.06;5077532;28;20090;-80
2022/02/08 01:56:28;;;;;;;14.40;5.25;;;;;;;7.89;97.15;102635.84;5098171;28;20047;-80
2022/02/08 01:58:54;;;;;;;23.48;5.82;;;;;;;7.91;97.25;102633.25;5082835;28;20338;-80
2022/02/08 02:04:49;;;;;;;18.30;4.50;;;;;;;8.02;97.22;102649.75;5084122;28;20031;-80
2022/02/08 02:07:17;;;;;;;12.05;4.95;;;;;;;8.03;97.07;102648.88;5068840;28;20052;-80
2022/02/08 02:09:46;;;;;;;15.48;4.97;;;;;;;8.02;96.99;102655.84;5095593;28;20036;-80
2022/02/08 02:12:12;;;;;;;;;;;;;;;8.05;97.03;102650.63;5062856;28;20016;-81
2022/02/08 02:14:39;;;;;;;14.80;4.47;;;;;;;8.07;97.13;102661.91;5080924;28;20097;-80
2022/02/08 02:17:08;;;;;;;19.17;4.45;;;;;;;8.07;97.06;102655.84;5100488;28;20040;-81
2022/02/08 02:19:34;;;;;;;17.30;4.40;;;;;;;8.07;96.94;102654.09;5100556;28;20047;-81
2022/02/08 02:22:01;;;;;;;15.02;4.32;;;;;;;8.05;96.73;102642.78;5081406;28;20053;-81
2022/02/08 02:24:27;;;;;;;18.10;5.07;;;;;;;8.07;96.78;102648.88;5096503;28;20035;-81
2022/02/08 02:26:52;;;;;;;14.38;3.85;;;;;;;8.07;96.60;102648.88;5081033;28;20219;-81
2022/02/08 02:29:22;;;;;;;17.52;4.68;;;;;;;8.07;96.72;102634.97;5082712;28;20044;-81
2022/02/08 02:31:48;;;;;;;12.88;4.20;;;;;;;8.10;96.38;102641.94;5047667;28;20111;-81
2022/02/08 02:34:19;;;;;;;19.55;5.55;;;;;;;8.09;96.44;102656.69;5080641;28;20413;-81
2022/02/08 02:36:45;;;;;;;16.58;4.20;;;;;;;8.10;96.49;102660.19;5078805;28;20055;-80
2022/02/08 02:39:11;;;;;;;14.98;3.80;;;;;;;8.12;96.52;102654.09;5099709;28;20111;-80
2022/02/08 02:41:42;;;;;;;17.75;4.13;;;;;;;8.12;96.34;102650.63;5080767;28;20024;-80
2022/02/08 02:44:09;;;;;;;24.00;3.70;;;;;;;8.13;96.26;102640.19;5089711;28;20048;-80
2022/02/08 02:46:36;;;;;;;18.85;3.50;;;;;;;8.14;96.06;102648.88;5099000;28;20285;-80
2022/02/08 02:49:02;;;;;;;17.15;3.42;;;;;;;8.15;95.88;102637.56;5080930;28;20068;-80
2022/02/08 02:51:28;;;;;;;16.75;3.65;;;;;;;8.13;96.02;102634.97;5080254;28;20079;-81
2022/02/08 02:53:54;;;;;;;17.40;3.53;;;;;;;8.17;95.91;102638.44;5080729;28;20024;-80
2022/02/08 02:56:19;;;;;;;15.70;3.83;;;;;;;8.17;95.83;102639.31;5067157;28;20032;-80
2022/02/08 02:58:45;;;;;;;14.85;4.13;;;;;;;8.15;95.88;102629.72;5078253;28;20059;-80
2022/02/08 03:01:22;;;;;;;16.90;3.60;;;;;;;8.16;95.75;102626.25;5080354;28;20077;-80
2022/02/08 03:20:04;;;;;;;9.63;2.28;;;;;;;8.17;95.34;102639.31;5082579;28;20043;-81
2022/02/08 03:22:29;;;;;;;19.10;3.50;;;;;;;8.15;95.42;102641.06;5079092;28;20032;-82
2022/02/08 03:24:55;;;;;;;13.45;2.28;;;;;;;8.17;95.23;102639.31;5075700;28;20238;-81
2022/02/08 03:27:20;;;;;;;11.65;2.95;;;;;;;8.18;95.04;102646.25;5078776;28;20031;-81
2022/02/08 03:29:46;;;;;;;7.97;2.38;;;;;;;8.19;94.81;102648.00;5067844;28;20047;-81
2022/02/08 03:32:13;;;;;;;16.70;2.72;;;;;;;8.19;94.79;102653.22;5092110;28;20020;-82
2022/02/08 03:34:39;;;;;;;11.98;2.33;;;;;;;8.17;94.48;102639.31;5081297;28;20038;-82
2022/02/08 03:37:04;;;;;;;18.52;3.38;;;;;;;8.17;94.13;102636.69;5064079;28;20028;-82
2022/02/08 03:39:35;;;;;;;12.57;2.17;;;;;;;8.19;94.28;102644.53;5098954;28;20397;-82
2022/02/08 03:42:20;;;;;;;12.07;2.53;;;;;;;8.19;93.73;102647.13;5080896;28;20077;-81
2022/02/08 03:44:48;;;;;;;17.30;2.67;;;;;;;8.19;93.51;102642.78;5111157;28;20091;-82
2022/02/08 03:47:14;;;;;;;12.48;1.98;;;;;;;8.19;93.29;102641.91;5101053;28;20323;-81
2022/02/08 03:49:40;;;;;;;18.70;2.50;;;;;;;8.18;93.16;102643.63;5119294;28;20046;-82
2022/02/08 03:52:06;;;;;;;20.00;2.80;;;;;;;8.19;92.89;102648.00;5067243;28;20035;-82
2022/02/08 03:54:33;;;;;;;15.88;2.28;;;;;;;8.18;92.65;102648.00;5101010;28;20055;-82
2022/02/08 03:56:59;;;;;;;9.43;1.67;;;;;;;8.20;92.55;102659.28;5100922;28;20042;-82
2022/02/08 03:59:25;;;;;;;8.38;2.08;;;;;;;8.19;92.38;102649.75;5083896;28;20027;-82
2022/02/08 04:04:31;;;;;;;17.65;2.17;;;;;;;8.20;92.20;102662.75;5101619;28;20059;-82
2022/02/08 04:07:00;;;;;;;16.77;2.28;;;;;;;8.19;91.68;102652.34;5087103;28;20023;-82
2022/02/08 04:09:25;;;;;;;;;;;;;;;8.21;91.50;102659.28;5101609;28;20054;-82
2022/02/08 04:12:08;;;;;;;14.48;2.20;;;;;;;8.23;91.24;102661.91;5100327;28;19951;-82
2022/02/08 04:14:42;;;;;;;15.32;2.80;;;;;;;8.24;90.90;102661.03;5100588;28;20336;-82
2022/02/08 04:31:31;;;;;;;11.43;1.85;;;;;;;8.26;90.62;102662.78;5096312;28;20097;-82
2022/02/08 04:44:29;;;;;;;6.53;1.83;;;;;;;8.27;90.99;102666.25;5057549;28;20056;-82
2022/02/08 04:47:14;;;;;;;9.98;1.30;;;;;;;8.29;90.85;102666.25;5097679;28;20039;-81
2022/02/08 04:49:40;;;;;;;9.65;1.52;;;;;;;8.30;90.54;102666.25;5068808;28;20085;-82
2022/02/08 04:52:08;;;;;;;15.73;2.20;;;;;;;8.30;90.64;102665.38;5062608;28;20048;-82
2022/02/08 05:00:03;;;;;;;10.48;2.65;;;;;;;8.26;90.44;102654.94;5096133;28;20335;-82
2022/02/08 05:26:34;;;;;;;7.93;1.95;;;;;;;8.28;89.85;102670.59;5078858;28;20048;-82
2022/02/08 05:45:59;;;;;;;12.32;1.77;;;;;;;8.44;87.91;102659.28;5083728;28;20040;-82
2022/02/08 05:48:27;;;;;;;13.50;1.77;;;;;;;8.46;87.61;102667.13;5085799;28;20119;-82
2022/02/08 05:51:00;;;;;;;14.40;1.67;;;;;;;8.49;87.60;102650.56;5083520;28;20016;-82
2022/02/08 05:55:50;;;;;;;10.90;2.03;;;;;;;8.48;87.67;102654.94;5100217;28;20067;-82
2022/02/08 05:58:16;;;;;;;9.35;2.17;;;;;;;8.50;87.52;102644.47;5065815;28;20096;-81
2022/02/08 06:00:41;;;;;;;9.00;1.45;;;;;;;8.50;87.54;102645.34;5082971;28;20243;-82
2022/02/08 06:03:07;;;;;;;8.90;1.83;;;;;;;8.50;87.39;102649.72;5100547;28;20360;-82
2022/02/08 06:05:33;;;;;;;13.32;1.98;;;;;;;8.52;87.27;102645.34;5082787;28;20028;-82
2022/02/08 06:07:58;;;;;;;9.48;1.90;;;;;;;8.50;87.20;102647.09;5100136;28;20034;-81
2022/02/08 06:10:24;;;;;;;8.82;1.30;;;;;;;8.52;86.84;102634.91;5095481;28;20046;-82
2022/02/08 06:12:54;;;;;;;16.02;2.83;;;;;;;8.55;86.85;102645.31;5080346;28;20048;-81
2022/02/08 06:15:22;;;;;;;11.43;2.08;;;;;;;8.54;86.52;102644.44;5081267;28;20343;-81
2022/02/08 06:17:48;;;;;;;8.67;1.80;;;;;;;8.51;86.92;102636.63;5095478;28;20067;-82
2022/02/08 06:20:14;;;;;;;14.98;2.47;;;;;;;8.49;86.70;102640.97;5098166;28;20032;-82
2022/02/08 06:22:41;;;;;;;16.45;2.20;;;;;;;8.52;86.80;102640.13;5100240;28;20095;-82
2022/02/08 06:25:10;;;;;;;7.32;1.30;;;;;;;8.52;86.63;102651.44;5098971;28;20103;-82
2022/02/08 06:27:35;;;;;;;7.63;1.55;;;;;;;8.52;86.49;102653.19;5080359;28;20327;-81
2022/02/08 06:30:03;;;;;;;12.35;2.20;;;;;;;8.52;86.62;102651.44;5098724;28;20035;-82
2022/02/08 06:32:31;;;;;;;5.95;1.38;;;;;;;8.52;86.54;102645.34;5085590;28;20032;-82
2022/02/08 06:34:58;;;;;;;5.70;1.40;;;;;;;8.52;86.58;102648.81;5081633;28;20217;-82
2022/02/08 06:37:25;;;;;;;7.15;1.70;;;;;;;8.51;86.57;102654.91;5085180;28;20031;-82
2022/02/08 06:39:51;;;;;;;10.50;1.95;;;;;;;8.52;86.56;102654.03;5080792;28;20291;-81
2022/02/08 06:42:16;;;;;;;14.02;2.05;;;;;;;8.51;86.29;102656.66;5098220;28;20235;-82
2022/02/08 06:44:41;;;;;;;14.90;2.10;;;;;;;8.49;86.44;102669.72;5081925;28;20113;-82
2022/02/08 06:47:07;;;;;;;15.05;2.63;;;;;;;8.51;86.13;102669.72;5060632;28;20028;-82
2022/02/08 06:49:33;;;;;;;8.27;1.50;;;;;;;8.53;86.16;102658.41;5079488;28;20036;-82
2022/02/08 06:51:58;;;;;;;8.15;1.50;;;;;;;8.52;85.94;102661.00;5092262;28;20036;-82
2022/02/08 06:54:24;;;;;;;6.93;1.17;;;;;;;8.52;85.81;102672.31;5079463;28;20057;-81
2022/02/08 06:56:49;;;;;;;9.65;1.92;;;;;;;8.57;85.54;102672.31;5086334;28;20370;-82
2022/02/08 06:59:17;;;;;;;5.70;1.45;;;;;;;8.57;85.44;102669.72;5099081;28;20339;-82
2022/02/08 07:01:45;;;;;;;12.50;1.70;;;;;;;8.56;85.44;102702.75;5063386;28;20067;-82
2022/02/08 07:04:16;;;;;;;18.88;3.53;;;;;;;8.59;85.01;102694.94;5079054;28;20290;-81
2022/02/08 07:06:43;;;;;;;9.73;2.00;;;;;;;8.62;84.81;102692.31;5098417;28;20066;-81
2022/02/08 07:09:09;;;;;;;10.27;1.67;;;;;;;8.62;84.66;102681.88;5079453;28;20028;-81
2022/02/08 07:11:35;;;;;;;7.35;1.77;;;;;;;8.60;84.82;102688.84;5098510;28;20036;-81
2022/02/08 07:14:02;;;;;;;12.10;1.52;;;;;;;8.61;84.88;102694.94;5080382;28;20071;-81
2022/02/08 07:16:27;;;;;;;7.45;1.65;;;;;;;8.59;84.88;102691.47;5075673;28;20035;-82
2022/02/08 07:18:53;;;;;;;5.95;1.52;;;;;;;8.60;84.93;102688.84;5062837;28;20328;-81
2022/02/08 07:21:18;;;;;;;10.90;1.90;;;;;;;8.60;84.96;102687.97;5075390;28;20067;-82
2022/02/08 07:23:44;;;;;;;6.32;1.40;;;;;;;8.62;84.64;102688.81;5060503;28;20016;-81
2022/02/08 07:26:09;;;;;;;4.18;1.55;;;;;;;8.63;84.61;102693.19;5093310;28;20046;-81
2022/02/08 07:28:41;;;;;;;10.68;1.92;;;;;;;8.64;84.58;102697.50;5078155;28;20056;-81
2022/02/08 07:31:22;;;;;;;5.32;1.27;;;;;;;8.63;84.53;102699.25;5079441;28;20691;-81
2022/02/08 07:34:03;;;;;;;6.00;1.35;;;;;;;8.64;84.31;102695.78;5090412;28;20080;-81
2022/02/08 07:36:42;;;;;;;9.68;1.77;;;;;;;8.64;84.56;102687.97;5078552;28;20055;-81
2022/02/08 07:39:10;;;;;;;14.60;2.13;;;;;;;8.61;84.69;102694.94;5060842;28;20036;-81
2022/02/08 07:41:45;;;;;;;11.13;2.25;;;;;;;8.62;84.67;102713.22;5079221;28;20024;-81
2022/02/08 07:44:12;;;;;;;7.15;1.83;;;;;;;8.61;84.79;102710.59;5075237;28;20220;-81
2022/02/08 07:46:38;;;;;;;13.10;2.20;;;;;;;8.61;84.82;102710.59;5077645;28;20078;-81
2022/02/08 07:49:06;;;;;;;5.25;1.80;;;;;;;8.62;84.96;102723.66;5071909;28;20044;-82
2022/02/08 07:51:40;;;;;;;7.97;1.10;;;;;;;8.63;85.05;102724.53;5093415;28;20081;-81
2022/02/08 07:54:05;;;;;;;9.60;1.73;;;;;;;8.64;85.04;102715.78;5093361;28;20032;-81
2022/02/08 07:56:31;;;;;;;5.50;1.45;;;;;;;8.63;85.36;102722.78;5077841;28;20040;-81
2022/02/08 07:58:57;;;;;;;13.52;1.80;;;;;;;8.64;85.24;102713.19;5080991;28;20242;-81
2022/02/08 08:01:22;;;;;;;7.50;2.47;;;;;;;8.64;85.24;102718.41;5069628;28;20271;-81
2022/02/08 08:03:48;;;;;;;10.20;1.42;;;;;;;8.64;85.18;102714.06;5083790;28;20085;-82
2022/02/08 08:06:16;;;;;;;10.60;1.27;;;;;;;8.64;85.25;102713.19;5084580;28;20034;-81
2022/02/08 08:08:41;;;;;;;9.48;1.70;;;;;;;8.64;85.38;102714.06;5047922;28;20029;-81
2022/02/08 08:11:12;;;;;;;15.50;1.85;;;;;;;8.65;85.26;102722.78;5050075;28;20036;-81
2022/02/08 08:13:41;;;;;;;7.80;1.58;;;;;;;8.64;85.41;102710.56;5057755;28;20139;-81
2022/02/08 08:16:47;;;;;;;17.35;1.85;;;;;;;8.62;85.49;102721.06;5070494;28;20032;-82
2022/02/08 08:19:02;;;;;;;10.30;2.17;;;;;;;8.63;85.45;102728.00;5068436;28;20344;-81
2022/02/08 08:21:28;;;;;;;9.30;1.50;;;;;;;8.62;85.50;102726.28;5070640;28;20033;-82
2022/02/08 08:23:54;;;;;;;13.45;1.83;;;;;;;8.62;85.67;102720.16;5051632;28;20032;-82
2022/02/08 08:26:20;;;;;;;7.60;1.50;;;;;;;8.65;85.27;102730.59;5040827;28;20275;-82
2022/02/08 08:28:46;;;;;;;10.57;1.58;;;;;;;8.67;85.38;102725.38;5066725;28;20339;-81
2022/02/08 08:31:12;;;;;;;10.93;1.70;;;;;;;8.68;85.44;102735.84;5035175;28;20056;-82
2022/02/08 08:33:38;;;;;;;6.25;1.63;;;;;;;8.69;85.21;102741.91;5033167;28;20060;-82
2022/02/08 08:36:05;;;;;;;10.77;1.77;;;;;;;8.70;85.09;102728.00;5028277;28;20339;-81
2022/02/08 08:38:32;;;;;;;11.98;1.40;;;;;;;8.71;85.09;102720.13;5067519;28;20064;-82
2022/02/08 08:41:07;;;;;;;10.32;1.88;;;;;;;8.73;84.64;102730.59;5066544;28;20339;-82
2022/02/08 08:51:43;;;;;;;14.13;1.80;;;;;;;8.72;84.76;102741.91;5045940;28;20032;-82
2022/02/08 08:54:09;;;;;;;14.55;2.00;;;;;;;8.76;84.42;102738.41;5045923;28;20103;-82
2022/02/08 08:56:42;;;;;;;10.45;1.40;;;;;;;8.81;84.23;102745.38;5066693;28;20047;-82
2022/02/08 08:59:10;;;;;;;9.10;1.30;;;;;;;8.83;84.08;102737.53;5078493;28;20040;-82
2022/02/08 09:01:36;;;;;;;5.72;1.42;;;;;;;8.87;83.65;102741.88;5089554;28;20071;-81
2022/02/08 09:04:02;;;;;;;10.00;1.58;;;;;;;8.88;83.80;102738.38;5058579;28;20109;-82
2022/02/08 09:06:28;;;;;;;13.75;1.73;;;;;;;8.89;84.01;102742.72;5093496;28;20263;-82
2022/02/08 09:08:54;;;;;;;5.63;1.50;;;;;;;8.88;83.97;102741.00;5071195;28;20107;-82
2022/02/08 09:25:20;;;;;;;8.43;1.45;;;;;;;9.09;83.41;102762.69;5086540;28;20223;-82
2022/02/08 09:30:49;;;;;;;16.50;2.10;;;;;;;9.16;82.65;102749.59;5029824;28;20048;-82
2022/02/08 09:33:15;;;;;;;13.10;1.67;;;;;;;9.17;82.74;102747.88;5097645;28;20331;-81
2022/02/08 09:35:40;;;;;;;12.07;1.58;;;;;;;9.19;82.58;102748.72;5078681;28;20046;-82
2022/02/08 09:38:06;;;;;;;16.15;1.52;;;;;;;9.20;82.61;102755.69;5079198;28;20234;-81
2022/02/08 09:40:31;;;;;;;10.45;1.15;;;;;;;9.21;82.60;102752.22;5075911;28;20051;-81
2022/02/08 09:42:58;;;;;;;9.20;1.40;;;;;;;9.19;82.76;102748.72;5098468;28;20475;-81
2022/02/08 09:45:24;;;;;;;9.88;1.77;;;;;;;9.19;82.50;102754.81;5095638;28;20048;-81
2022/02/08 09:48:17;;;;;;;12.13;1.48;;;;;;;9.22;82.45;102752.19;5079600;28;20031;-81
2022/02/08 09:50:42;;;;;;;11.05;2.00;;;;;;;9.23;82.42;102745.22;5072221;28;20032;-82
2022/02/08 09:53:12;;;;;;;6.68;1.40;;;;;;;9.25;82.48;102746.06;5077690;28;20055;-81
2022/02/08 09:55:40;;;;;;;11.45;1.88;;;;;;;9.28;81.82;102751.31;5076892;28;20059;-82
2022/02/08 09:58:07;;;;;;;11.90;1.52;;;;;;;9.31;82.05;102750.41;5048737;28;20048;-81
2022/02/08 10:00:34;;;;;;;10.40;1.60;;;;;;;9.32;81.61;102753.00;5089637;28;20043;-81
2022/02/08 10:03:17;;;;;;;10.38;2.08;;;;;;;9.39;81.34;102748.63;5052911;28;20107;-82
2022/02/08 10:05:49;;;;;;;10.13;1.95;;;;;;;9.38;81.35;102752.13;5062137;28;20043;-81
2022/02/08 10:08:15;;;;;;;3.28;1.20;;;;;;;9.40;81.17;102761.72;5086335;28;20247;-81
2022/02/08 10:10:42;;;;;;;5.72;1.30;;;;;;;9.40;81.26;102748.63;5073727;28;20043;-81
2022/02/08 10:13:30;;;;;;;11.82;1.88;;;;;;;9.43;81.15;102758.19;5059802;28;20043;-82
2022/02/08 10:21:54;;;;;;;4.85;1.25;;;;;;;9.55;80.22;102778.16;5091287;28;20632;-82
2022/02/08 10:24:18;;;;;;;17.65;1.95;;;;;;;9.53;80.23;102775.59;5085348;28;20040;-81
2022/02/08 10:29:38;;;;;;;11.93;1.33;;;;;;;9.52;80.51;102770.34;5075883;28;20097;-81
2022/02/08 10:37:43;;;;;;;8.23;1.08;;;;;;;9.56;79.92;102766.84;5097564;28;20340;-81
2022/02/08 10:40:22;;;;;;;18.73;1.73;;;;;;;9.57;80.02;102761.59;5092905;28;20249;-82
2022/02/08 10:42:56;;;;;;;12.23;1.83;;;;;;;9.59;80.28;102769.44;5092279;28;20389;-82
2022/02/08 10:45:30;;;;;;;6.15;0.98;;;;;;;9.58;80.33;102771.19;5096582;28;20354;-81
2022/02/08 10:47:59;;;;;;;7.90;1.08;;;;;;;9.58;80.34;102772.94;5107050;28;20219;-81
2022/02/08 10:50:26;;;;;;;12.05;1.58;;;;;;;9.62;79.49;102764.19;5086733;28;20269;-81
2022/02/08 10:52:54;;;;;;;8.25;1.00;;;;;;;9.62;79.88;102758.94;5085347;28;20407;-82
2022/02/08 10:55:41;;;;;;;4.55;0.95;;;;;;;9.63;79.80;102762.44;5079433;28;20236;-81
2022/02/08 11:03:24;;;;;;;5.10;1.05;;;;;;;9.64;79.54;102752.00;5097198;28;20114;-81
2022/02/08 11:06:07;;;;;;;11.95;2.50;;;;;;;9.68;79.53;102748.47;5076227;28;20280;-82
2022/02/08 11:16:50;;;;;;;10.98;1.50;;;;;;;9.69;79.36;102739.72;5074800;28;20067;-82
2022/02/08 11:22:15;;;;;;;6.35;1.02;;;;;;;9.71;79.23;102748.41;5085388;28;20099;-81
2022/02/08 11:24:44;;;;;;;5.47;1.45;;;;;;;9.72;79.37;102738.84;5086233;28;20119;-82
2022/02/08 11:27:15;;;;;;;10.40;1.00;;;;;;;9.75;78.54;102754.50;5083420;28;20274;-81
2022/02/08 11:30:08;;;;;;;11.45;1.67;;;;;;;9.74;78.29;102753.66;5075269;28;20028;-82
2022/02/08 12:07:36;;;;;;;15.57;2.33;;;;;;;9.77;78.99;102729.22;5086325;28;20308;-82
2022/02/08 12:10:24;;;;;;;11.52;1.80;;;;;;;9.79;78.72;102728.31;5111933;28;20031;-82
2022/02/08 12:32:21;;;;;;;8.25;1.30;;;;;;;9.89;78.63;102741.34;5101738;28;20070;-82
2022/02/08 13:04:40;;;;;;;7.32;1.55;;;;;;;9.98;78.82;102747.34;5089576;28;20389;-82
2022/02/08 14:06:14;;;;;;;5.20;1.20;;;;;;;10.01;77.81;102727.31;5095647;28;20500;-82
2022/02/08 14:08:58;;;;;;;6.68;1.17;;;;;;;9.99;77.63;102725.56;5081557;28;20109;-82
2022/02/08 14:11:49;;;;;;;6.57;1.40;;;;;;;10.02;77.34;102724.66;5064077;28;20024;-82
2022/02/08 14:19:33;;;;;;;10.95;1.40;;;;;;;9.99;77.82;102724.69;5098453;28;20047;-82
2022/02/08 14:22:15;;;;;;;12.15;2.25;;;;;;;9.98;78.31;102728.19;5091897;28;20413;-82
2022/02/08 14:25:15;;;;;;;5.22;1.20;;;;;;;10.00;77.80;102739.50;5082401;28;20047;-82
2022/02/08 14:30:28;;;;;;;8.23;0.95;;;;;;;10.05;76.80;102729.88;5081536;28;20051;-82
2022/02/08 15:05:36;;;;;;;5.75;1.40;;;;;;;9.84;78.65;102736.16;5023102;28;20131;-82
2022/02/08 15:10:40;;;;;;;9.40;1.67;;;;;;;9.77;78.86;102739.69;5097312;28;20036;-82
2022/02/08 15:13:07;;;;;;;15.80;1.77;;;;;;;9.78;78.75;102742.28;5098538;28;20097;-82
2022/02/08 15:17:57;;;;;;;6.65;1.65;;;;;;;9.78;79.32;102739.66;5075578;28;20040;-82
2022/02/08 15:20:24;;;;;;;14.02;2.13;;;;;;;9.80;79.21;102742.25;5072068;28;20213;-82
2022/02/08 15:22:50;;;;;;;7.45;1.30;;;;;;;9.84;78.75;102753.56;5089140;28;20330;-82
2022/02/08 15:25:16;;;;;;;8.50;1.05;;;;;;;9.85;78.96;102744.88;5071199;28;20051;-82
2022/02/08 15:27:43;;;;;;;5.93;1.27;;;;;;;9.83;79.04;102747.47;5092029;28;20103;-82
2022/02/08 15:30:09;;;;;;;5.18;1.40;;;;;;;9.82;78.82;102742.25;5070380;28;20270;-82
2022/02/08 15:32:36;;;;;;;5.40;1.25;;;;;;;9.80;78.67;102742.25;5067171;28;20383;-82
2022/02/08 15:35:03;;;;;;;12.20;1.73;;;;;;;9.79;78.67;102736.16;5090718;28;20229;-82
2022/02/08 15:37:31;;;;;;;6.00;1.65;;;;;;;9.78;79.10;102739.66;5082484;28;20266;-82
2022/02/08 15:39:57;;;;;;;9.18;1.50;;;;;;;9.75;78.82;102734.47;5062959;28;20041;-82
2022/02/08 15:42:30;;;;;;;4.40;1.40;;;;;;;9.74;79.06;102729.22;5092737;28;20082;-82
2022/02/08 15:44:57;;;;;;;5.43;1.70;;;;;;;9.71;79.21;102726.63;5076949;28;20104;-82
2022/02/08 15:47:23;;;;;;;4.53;0.88;;;;;;;9.70;79.68;102724.91;5078090;28;20389;-82
2022/02/08 15:49:57;;;;;;;8.15;1.23;;;;;;;9.67;79.47;102722.31;5086681;28;20100;-82
2022/02/08 15:52:31;;;;;;;5.93;1.42;;;;;;;9.65;79.75;102722.31;5073131;28;20047;-82
2022/02/08 15:54:59;;;;;;;4.93;1.50;;;;;;;9.65;80.10;102726.69;5069004;28;20036;-82
2022/02/08 15:58:04;;;;;;;5.55;1.88;;;;;;;9.61;79.92;102725.84;5088815;28;20259;-82
2022/02/08 16:06:30;;;;;;;9.05;1.50;;;;;;;9.54;79.94;102727.59;5079014;28;20054;-82
2022/02/08 16:14:28;;;;;;;7.05;2.03;;;;;;;9.48;80.11;102727.66;5056012;28;20429;-82
2022/02/08 16:17:03;;;;;;;8.02;1.67;;;;;;;9.45;80.22;102730.28;5072856;28;20036;-82
2022/02/08 16:30:36;;;;;;;8.25;1.48;;;;;;;9.35;80.52;102739.94;5075727;28;20231;-82
2022/02/08 16:59:17;;;;;;;4.60;1.00;;;;;;;9.17;81.42;102761.81;5081909;28;20108;-82
2022/02/08 17:01:42;;;;;;;7.38;1.35;;;;;;;9.17;81.60;102767.03;5078859;28;20032;-82
2022/02/08 17:04:09;;;;;;;4.72;0.90;;;;;;;9.16;81.84;102769.66;5090506;28;20283;-82
2022/02/08 17:06:35;;;;;;;8.30;1.42;;;;;;;9.14;81.90;102766.19;5092492;28;20052;-82
2022/02/08 17:09:07;;;;;;;8.73;1.40;;;;;;;9.14;82.03;102772.25;5084133;28;20359;-82
2022/02/08 17:11:57;;;;;;;6.00;1.40;;;;;;;9.13;81.98;102772.25;5092941;28;20051;-82
2022/02/08 17:47:19;;;;;;;9.15;1.30;;;;;;;9.05;82.47;102748.78;5088396;28;20101;-82
2022/02/08 17:49:44;;;;;;;5.82;1.70;;;;;;;9.03;82.67;102760.97;5065415;28;20036;-83
2022/02/08 17:52:10;;;;;;;9.93;1.48;;;;;;;9.01;82.51;102763.59;5094808;28;20377;-82
2022/02/08 17:54:37;;;;;;;4.03;0.93;;;;;;;9.00;82.71;102753.16;5062724;28;20327;-82
2022/02/08 17:57:03;;;;;;;3.97;1.25;;;;;;;9.01;82.75;102762.72;5097650;28;20119;-82
2022/02/08 17:59:29;;;;;;;11.90;1.73;;;;;;;9.00;82.87;102763.59;5093493;28;20291;-82
2022/02/08 18:01:55;;;;;;;7.43;2.20;;;;;;;9.01;82.96;102767.97;5095013;28;20290;-82
2022/02/08 18:04:20;;;;;;;9.02;1.40;;;;;;;8.98;82.80;102760.97;5071418;28;20044;-82
2022/02/08 18:06:45;;;;;;;8.20;1.38;;;;;;;8.97;82.97;102747.94;5098480;28;20262;-82
2022/02/08 18:09:13;;;;;;;8.45;1.60;;;;;;;8.97;82.91;102748.81;5075134;28;20043;-82
2022/02/08 18:11:41;;;;;;;9.48;1.50;;;;;;;8.95;83.03;102745.34;5087403;28;20096;-82
2022/02/08 18:14:09;;;;;;;10.15;1.80;;;;;;;8.93;83.09;102736.63;5073840;28;20086;-82
2022/02/08 18:16:38;;;;;;;6.27;1.97;;;;;;;8.93;83.33;102754.03;5090458;28;20453;-82
2022/02/08 18:19:09;;;;;;;;;;;;;;;8.91;83.43;102748.81;5079666;28;20054;-82
2022/02/08 18:21:42;;;;;;;7.70;1.50;;;;;;;8.88;83.19;102761.00;5084610;28;20871;-82
2022/02/08 18:24:33;;;;;;;10.68;1.48;;;;;;;8.88;83.32;102750.56;5088140;28;20098;-82
2022/02/08 18:54:17;;;;;;;6.38;1.75;;;;;;;8.88;84.38;102779.31;5078650;28;20078;-82
2022/02/08 19:18:37;;;;;;;9.30;1.67;;;;;;;8.87;85.09;102757.53;5094808;28;20085;-83
2022/02/08 19:23:36;;;;;;;6.97;1.65;;;;;;;8.87;85.11;102757.53;5079412;28;20312;-82
2022/02/08 19:26:04;;;;;;;8.27;1.75;;;;;;;8.88;85.04;102751.47;5077751;28;20038;-83
2022/02/08 19:28:30;;;;;;;5.70;1.13;;;;;;;8.89;85.38;102754.94;5097041;28;20062;-82
2022/02/08 19:30:55;;;;;;;9.73;2.00;;;;;;;8.89;85.24;102757.53;5059761;28;20505;-83
2022/02/08 19:33:22;;;;;;;9.48;1.65;;;;;;;8.90;85.20;102756.69;5061230;28;20063;-83
2022/02/08 19:35:48;;;;;;;8.32;1.40;;;;;;;8.89;85.30;102763.63;5074282;28;20115;-82
2022/02/08 19:38:16;;;;;;;5.03;1.60;;;;;;;8.88;85.18;102754.06;5094663;28;20028;-82
2022/02/08 19:40:42;;;;;;;9.27;1.48;;;;;;;8.89;85.52;102750.56;5094631;28;20338;-82
2022/02/08 19:43:07;;;;;;;10.38;1.98;;;;;;;8.88;85.56;102753.19;5092731;28;20028;-82